Time;durP1;ratioP1;P1;durP2;ratioP2;P2;SDS_P1;SDS_P2;PMS_P1;PMS_P2;Temp;Humidity;BMP_temperature;BMP_pressure;BME280_temperature;BME280_humidity;BME280_pressure;Samples;Min_cycle;Max_cycle;Signal;HPM_P1;HPM_P2
2024/02/18 00:00:20;0.00;0.00;0.62;0.00;0.00;0.62;5.60;4.67;;;24.30;28.00;;;;;;2255946;61;20897;-65
2024/02/18 00:03:05;0.00;0.00;0.62;0.00;0.00;0.62;4.07;3.40;;;24.30;27.50;;;;;;2255558;61;20389;-65
2024/02/18 00:05:50;0.00;0.00;0.62;0.00;0.00;0.62;5.13;3.40;;;24.30;27.50;;;;;;2255598;61;20358;-67
2024/02/18 00:08:35;0.00;0.00;0.62;0.00;0.00;0.62;4.30;3.47;;;24.30;27.50;;;;;;2255804;61;20373;-65
2024/02/18 00:11:20;0.00;0.00;0.62;0.00;0.00;0.62;3.77;3.30;;;24.30;27.50;;;;;;2255738;61;20454;-66
2024/02/18 00:14:06;0.00;0.00;0.62;0.00;0.00;0.62;3.87;3.33;;;24.20;27.40;;;;;;2255741;61;20440;-66
2024/02/18 00:16:51;0.00;0.00;0.62;0.00;0.00;0.62;4.17;3.33;;;24.20;27.40;;;;;;2255702;61;20916;-66
2024/02/18 00:19:36;0.00;0.00;0.62;0.00;0.00;0.62;4.10;3.43;;;24.20;27.40;;;;;;2255704;61;20366;-65
2024/02/18 00:22:20;0.00;0.00;0.62;0.00;0.00;0.62;3.80;3.17;;;24.20;27.50;;;;;;2255777;61;20390;-66
2024/02/18 00:25:08;0.00;0.00;0.62;0.00;0.00;0.62;3.73;2.97;;;24.20;27.50;;;;;;2255514;61;20438;-66
2024/02/18 00:27:53;0.00;0.00;0.62;0.00;0.00;0.62;4.10;3.50;;;24.20;27.50;;;;;;2252306;61;20365;-65
2024/02/18 00:30:39;0.00;0.00;0.62;0.00;0.00;0.62;4.20;3.23;;;24.20;27.50;;;;;;2255489;61;20350;-65
2024/02/18 00:33:25;0.00;0.00;0.62;0.00;0.00;0.62;3.60;3.20;;;24.20;27.50;;;;;;2264760;55;20400;-68
2024/02/18 00:36:10;0.00;0.00;0.62;0.00;0.00;0.62;3.50;2.80;;;24.20;27.50;;;;;;2261417;61;20938;-69
2024/02/18 00:38:55;0.00;0.00;0.62;0.00;0.00;0.62;3.60;2.87;;;24.20;27.50;;;;;;2264959;61;20368;-68
2024/02/18 00:41:39;0.00;0.00;0.62;0.00;0.00;0.62;3.70;2.77;;;24.20;27.50;;;;;;2262087;61;20395;-69
2024/02/18 00:44:24;0.00;0.00;0.62;0.00;0.00;0.62;3.63;2.90;;;24.20;27.50;;;;;;2260972;61;20471;-69
2024/02/18 00:47:10;0.00;0.00;0.62;0.00;0.00;0.62;3.50;2.90;;;24.20;27.50;;;;;;2260072;61;20363;-68
2024/02/18 00:49:54;0.00;0.00;0.62;0.00;0.00;0.62;3.30;2.50;;;24.20;27.50;;;;;;2260516;61;20423;-68
2024/02/18 00:52:39;0.00;0.00;0.62;0.00;0.00;0.62;3.20;2.50;;;24.20;27.50;;;;;;2260812;61;20504;-68
2024/02/18 00:55:23;0.00;0.00;0.62;0.00;0.00;0.62;3.40;3.10;;;24.20;27.50;;;;;;2260755;61;20361;-68
2024/02/18 00:58:08;0.00;0.00;0.62;0.00;0.00;0.62;3.77;3.30;;;24.20;27.50;;;;;;2260563;61;20487;-68
2024/02/18 01:00:53;0.00;0.00;0.62;0.00;0.00;0.62;3.70;3.07;;;24.10;27.40;;;;;;2260502;61;20396;-67
2024/02/18 01:03:39;0.00;0.00;0.62;0.00;0.00;0.62;3.07;2.33;;;24.10;27.40;;;;;;2260514;61;20377;-68
2024/02/18 01:06:24;0.00;0.00;0.62;0.00;0.00;0.62;3.20;2.90;;;24.10;27.40;;;;;;2260117;61;20431;-68
2024/02/18 01:09:09;0.00;0.00;0.62;0.00;0.00;0.62;4.20;2.77;;;24.10;27.40;;;;;;2260356;61;20388;-69
2024/02/18 01:11:54;0.00;0.00;0.62;0.00;0.00;0.62;3.33;3.03;;;24.10;27.40;;;;;;2260381;61;20442;-68
2024/02/18 01:14:39;0.00;0.00;0.62;0.00;0.00;0.62;3.03;2.40;;;24.10;27.40;;;;;;2257394;61;20772;-68
2024/02/18 01:17:23;0.00;0.00;0.62;0.00;0.00;0.62;3.70;2.50;;;24.10;27.40;;;;;;2260756;61;20915;-68
2024/02/18 01:20:10;0.00;0.00;0.62;0.00;0.00;0.62;2.80;2.50;;;24.10;27.40;;;;;;2260235;61;20938;-68
2024/02/18 01:22:55;0.00;0.00;0.62;0.00;0.00;0.62;3.33;2.60;;;24.10;27.40;;;;;;2260327;61;20381;-68
2024/02/18 01:25:39;0.00;0.00;0.62;0.00;0.00;0.62;3.07;2.70;;;24.10;27.40;;;;;;2260122;61;20555;-68
2024/02/18 01:28:25;0.00;0.00;0.62;0.00;0.00;0.62;3.67;2.80;;;24.10;27.40;;;;;;2260392;61;20420;-68
2024/02/18 01:31:10;0.00;0.00;0.62;0.00;0.00;0.62;3.77;3.07;;;24.10;27.40;;;;;;2260656;61;20408;-68
2024/02/18 01:33:54;0.00;0.00;0.62;0.00;0.00;0.62;3.30;2.73;;;24.10;27.40;;;;;;2260108;61;20400;-68
2024/02/18 01:36:40;0.00;0.00;0.62;0.00;0.00;0.62;3.27;2.47;;;24.00;27.40;;;;;;2260460;61;20760;-68
2024/02/18 01:39:25;0.00;0.00;0.62;0.00;0.00;0.62;3.37;2.30;;;24.10;27.40;;;;;;2260280;61;20353;-68
2024/02/18 01:42:10;0.00;0.00;0.62;0.00;0.00;0.62;2.40;1.83;;;24.00;27.40;;;;;;2256858;61;20428;-68
2024/02/18 01:44:55;0.00;0.00;0.62;0.00;0.00;0.62;2.90;2.10;;;24.00;27.40;;;;;;2260163;61;20388;-68
2024/02/18 01:47:42;0.00;0.00;0.62;0.00;0.00;0.62;2.57;1.90;;;24.00;27.40;;;;;;2260283;61;20447;-69
2024/02/18 01:50:28;0.00;0.00;0.62;0.00;0.00;0.62;3.20;2.60;;;24.00;27.40;;;;;;2260428;61;20423;-68
2024/02/18 01:53:18;0.00;0.00;0.62;0.00;0.00;0.62;2.80;2.20;;;24.00;27.40;;;;;;2259885;61;20380;-69
2024/02/18 01:56:02;0.00;0.00;0.62;0.00;0.00;0.62;2.70;2.00;;;24.00;27.40;;;;;;2259991;61;20366;-69
2024/02/18 01:58:47;0.00;0.00;0.62;0.00;0.00;0.62;2.87;2.23;;;24.00;27.40;;;;;;2260959;61;20353;-68
2024/02/18 02:01:33;0.00;0.00;0.62;0.00;0.00;0.62;2.90;2.00;;;24.00;27.40;;;;;;2257806;61;20495;-68
2024/02/18 02:04:18;0.00;0.00;0.62;0.00;0.00;0.62;3.40;2.20;;;24.00;27.40;;;;;;2260587;61;20408;-67
2024/02/18 02:07:03;0.00;0.00;0.62;0.00;0.00;0.62;2.40;1.90;;;24.00;27.40;;;;;;2260762;61;20468;-68
2024/02/18 02:09:49;0.00;0.00;0.62;0.00;0.00;0.62;3.20;2.50;;;24.00;27.40;;;;;;2261378;61;20391;-68
2024/02/18 02:12:34;0.00;0.00;0.62;0.00;0.00;0.62;2.20;1.70;;;24.00;27.40;;;;;;2261800;61;20476;-67
2024/02/18 02:15:19;0.00;0.00;0.62;0.00;0.00;0.62;2.60;2.10;;;24.00;27.40;;;;;;2261753;61;20444;-68
2024/02/18 02:18:04;0.00;0.00;0.62;0.00;0.00;0.62;2.60;2.10;;;24.00;27.50;;;;;;2261260;61;20428;-69
2024/02/18 02:20:49;0.00;0.00;0.62;0.00;0.00;0.62;2.80;2.30;;;24.00;27.50;;;;;;2261090;61;20456;-69
2024/02/18 02:23:34;0.00;0.00;0.62;0.00;0.00;0.62;2.40;1.90;;;23.90;27.40;;;;;;2260876;61;20392;-69
2024/02/18 02:26:21;0.00;0.00;0.62;0.00;0.00;0.62;3.13;2.07;;;23.90;27.40;;;;;;2260526;61;20416;-68
2024/02/18 02:29:11;0.00;0.00;0.62;0.00;0.00;0.62;3.00;2.03;;;24.00;27.50;;;;;;2260607;61;20365;-68
2024/02/18 02:31:58;0.00;0.00;0.62;0.00;0.00;0.62;2.40;1.90;;;23.90;27.40;;;;;;2260464;61;20369;-68
2024/02/18 02:34:43;0.00;0.00;0.62;0.00;0.00;0.62;2.70;2.00;;;23.90;27.40;;;;;;2260515;61;20364;-69
2024/02/18 02:37:28;0.00;0.00;0.62;0.00;0.00;0.62;2.20;1.80;;;23.90;27.40;;;;;;2266506;58;20368;-68
2024/02/18 02:40:13;0.00;0.00;0.62;0.00;0.00;0.62;2.00;1.50;;;23.90;27.40;;;;;;2257566;61;20372;-68
2024/02/18 02:42:58;0.00;0.00;0.62;0.00;0.00;0.62;2.70;1.97;;;23.90;27.40;;;;;;2260903;61;20889;-68
2024/02/18 02:45:44;0.00;0.00;0.62;0.00;0.00;0.62;2.50;1.80;;;23.90;27.40;;;;;;2260337;61;20408;-69
2024/02/18 02:48:29;0.00;0.00;0.62;0.00;0.00;0.62;2.20;1.90;;;23.90;27.40;;;;;;2260507;61;20364;-68
2024/02/18 02:51:16;0.00;0.00;0.62;0.00;0.00;0.62;4.00;2.23;;;23.90;27.50;;;;;;2260768;61;20393;-69
2024/02/18 02:54:01;0.00;0.00;0.62;0.00;0.00;0.62;2.63;1.90;;;23.90;27.50;;;;;;2260905;61;20381;-69
2024/02/18 02:56:46;0.00;0.00;0.62;0.00;0.00;0.62;3.83;2.27;;;23.90;27.50;;;;;;2261084;61;20903;-68
2024/02/18 02:59:30;0.00;0.00;0.62;0.00;0.00;0.62;2.50;1.97;;;23.80;27.40;;;;;;2261104;61;20369;-68
2024/02/18 03:02:16;0.00;0.00;0.62;0.00;0.00;0.62;2.40;1.97;;;23.90;27.50;;;;;;2260662;61;20454;-68
2024/02/18 03:05:01;0.00;0.00;0.62;0.00;0.00;0.62;2.07;1.50;;;23.90;27.50;;;;;;2260919;61;20368;-69
2024/02/18 03:07:45;0.00;0.00;0.62;0.00;0.00;0.62;2.20;1.60;;;23.80;27.40;;;;;;2260933;61;20909;-68
2024/02/18 03:10:30;0.00;0.00;0.62;0.00;0.00;0.62;2.40;1.83;;;23.80;27.40;;;;;;2260909;61;20764;-69
2024/02/18 03:13:14;0.00;0.00;0.62;0.00;0.00;0.62;2.67;2.00;;;23.80;27.40;;;;;;2261268;61;20427;-69
2024/02/18 03:15:59;0.00;0.00;0.62;0.00;0.00;0.62;2.27;1.80;;;23.80;27.40;;;;;;2261190;61;20868;-69
2024/02/18 03:18:45;0.00;0.00;0.62;0.00;0.00;0.62;2.23;1.63;;;23.80;27.40;;;;;;2261392;61;20360;-69
2024/02/18 03:21:30;0.00;0.00;0.62;0.00;0.00;0.62;2.97;2.03;;;23.80;27.40;;;;;;2263050;61;20778;-68
2024/02/18 03:24:14;0.00;0.00;0.62;0.00;0.00;0.62;2.23;1.93;;;23.80;27.40;;;;;;2261405;61;20361;-68
2024/02/18 03:27:00;0.00;0.00;0.62;0.00;0.00;0.62;2.30;1.60;;;23.80;27.40;;;;;;2260454;61;20909;-68
2024/02/18 03:29:44;0.00;0.00;0.62;0.00;0.00;0.62;2.77;1.87;;;23.80;27.40;;;;;;2260480;61;20838;-69
2024/02/18 03:32:29;0.00;0.00;0.62;0.00;0.00;0.62;2.47;1.77;;;23.80;27.40;;;;;;2260414;61;20447;-69
2024/02/18 03:35:15;0.00;0.00;0.62;0.00;0.00;0.62;2.30;1.73;;;23.80;27.40;;;;;;2260860;61;20407;-68
2024/02/18 03:38:00;0.00;0.00;0.62;0.00;0.00;0.62;2.40;1.77;;;23.80;27.40;;;;;;2260594;61;20405;-68
2024/02/18 03:40:44;0.00;0.00;0.62;0.00;0.00;0.62;2.40;1.70;;;23.80;27.40;;;;;;2260568;61;20440;-68
2024/02/18 03:43:30;0.00;0.00;0.62;0.00;0.00;0.62;2.00;1.40;;;23.80;27.40;;;;;;2260276;61;20563;-68
2024/02/18 03:46:15;0.00;0.00;0.62;0.00;0.00;0.62;2.07;1.50;;;23.80;27.90;;;;;;2260859;61;20389;-68
2024/02/18 03:49:00;0.00;0.00;0.62;0.00;0.00;0.62;2.30;1.93;;;23.80;27.40;;;;;;2261597;61;20900;-68
2024/02/18 03:51:46;0.00;0.00;0.62;0.00;0.00;0.62;2.10;1.40;;;23.80;27.90;;;;;;2260758;61;20896;-68
2024/02/18 03:54:31;0.00;0.00;0.62;0.00;0.00;0.62;2.20;1.63;;;23.80;27.40;;;;;;2260606;61;20492;-68
2024/02/18 03:57:15;0.00;0.00;0.62;0.00;0.00;0.62;2.67;2.03;;;23.80;27.40;;;;;;2257458;61;20349;-68
2024/02/18 04:00:00;0.00;0.00;0.62;0.00;0.00;0.62;2.20;1.70;;;23.70;27.40;;;;;;2260639;61;20396;-68
2024/02/18 04:02:44;0.00;0.00;0.62;0.00;0.00;0.62;2.67;1.93;;;23.70;27.40;;;;;;2260517;61;20415;-67
2024/02/18 04:05:29;0.00;0.00;0.62;0.00;0.00;0.62;2.27;1.50;;;23.70;27.40;;;;;;2260513;61;20372;-68
2024/02/18 04:08:15;0.00;0.00;0.62;0.00;0.00;0.62;2.43;1.50;;;23.70;27.40;;;;;;2260336;61;20428;-69
2024/02/18 04:11:00;0.00;0.00;0.62;0.00;0.00;0.62;2.47;1.80;;;23.70;27.40;;;;;;2261061;61;20369;-68
2024/02/18 04:13:45;0.00;0.00;0.62;0.00;0.00;0.62;2.27;1.63;;;23.70;27.40;;;;;;2261201;61;20388;-68
2024/02/18 04:16:30;0.00;0.00;0.62;0.00;0.00;0.62;2.50;2.00;;;23.70;27.40;;;;;;2260536;61;20453;-69
2024/02/18 04:19:15;0.00;0.00;0.62;0.00;0.00;0.62;2.10;1.70;;;23.70;27.40;;;;;;2260820;61;20431;-69
2024/02/18 04:21:59;0.00;0.00;0.62;0.00;0.00;0.62;2.03;1.77;;;23.70;27.40;;;;;;2260717;61;20858;-69
2024/02/18 04:24:45;0.00;0.00;0.62;0.00;0.00;0.62;2.30;1.90;;;23.70;27.40;;;;;;2256967;61;20771;-68
2024/02/18 04:27:30;0.00;0.00;0.62;0.00;0.00;0.62;2.33;1.60;;;23.70;27.40;;;;;;2260423;61;20428;-68
2024/02/18 04:30:15;0.00;0.00;0.62;0.00;0.00;0.62;2.10;1.70;;;23.70;27.40;;;;;;2260431;61;20360;-69
2024/02/18 04:33:00;0.00;0.00;0.62;0.00;0.00;0.62;2.00;1.70;;;23.70;27.40;;;;;;2260264;61;20806;-68
2024/02/18 04:35:44;0.00;0.00;0.62;0.00;0.00;0.62;2.30;1.70;;;23.70;27.40;;;;;;2260205;61;20365;-68
2024/02/18 04:38:29;0.00;0.00;0.62;0.00;0.00;0.62;2.33;1.60;;;23.70;27.90;;;;;;2260269;61;20369;-69
2024/02/18 04:41:15;0.00;0.00;0.62;0.00;0.00;0.62;1.97;1.60;;;23.60;27.40;;;;;;2260453;61;20411;-68
2024/02/18 04:43:59;0.00;0.00;0.62;0.00;0.00;0.62;2.43;1.63;;;23.70;27.50;;;;;;2260150;61;20420;-69
2024/02/18 04:46:44;0.00;0.00;0.62;0.00;0.00;0.62;2.13;1.40;;;23.70;27.40;;;;;;2256962;61;20409;-68
2024/02/18 04:49:28;0.00;0.00;0.62;0.00;0.00;0.62;2.37;1.80;;;23.70;27.40;;;;;;2260249;61;20365;-68
2024/02/18 04:52:13;0.00;0.00;0.62;0.00;0.00;0.62;2.17;1.60;;;23.60;27.40;;;;;;2260508;61;20424;-68
2024/02/18 04:54:58;0.00;0.00;0.62;0.00;0.00;0.62;2.70;1.73;;;23.60;27.40;;;;;;2260451;61;20411;-68
2024/02/18 04:57:44;0.00;0.00;0.62;0.00;0.00;0.62;3.00;2.00;;;23.60;27.40;;;;;;2260385;61;20357;-68
2024/02/18 05:00:28;0.00;0.00;0.62;0.00;0.00;0.62;2.33;1.77;;;23.60;27.40;;;;;;2260059;61;20415;-68
2024/02/18 05:03:13;0.00;0.00;0.62;0.00;0.00;0.62;2.50;1.60;;;23.60;27.40;;;;;;2260329;61;20435;-68
2024/02/18 05:05:58;0.00;0.00;0.62;0.00;0.00;0.62;2.87;2.23;;;23.60;27.40;;;;;;2260231;61;20369;-68
2024/02/18 05:08:42;0.00;0.00;0.62;0.00;0.00;0.62;2.50;1.87;;;23.60;27.40;;;;;;2259961;61;20911;-68
2024/02/18 05:11:27;0.00;0.00;0.62;0.00;0.00;0.62;2.43;2.00;;;23.60;27.40;;;;;;2260337;61;20368;-68
2024/02/18 05:14:13;0.00;0.00;0.62;0.00;0.00;0.62;2.40;1.80;;;23.60;27.40;;;;;;2260357;61;20380;-68
2024/02/18 05:16:59;0.00;0.00;0.62;0.00;0.00;0.62;2.97;1.90;;;23.60;27.40;;;;;;2260085;61;20373;-69
2024/02/18 05:19:44;0.00;0.00;0.62;0.00;0.00;0.62;2.13;1.90;;;23.60;27.40;;;;;;2261189;61;20487;-68
2024/02/18 05:22:29;0.00;0.00;0.62;0.00;0.00;0.62;2.30;1.60;;;23.60;27.40;;;;;;2261063;61;20459;-68
2024/02/18 05:25:13;0.00;0.00;0.62;0.00;0.00;0.62;3.00;1.87;;;23.60;27.40;;;;;;2260700;61;20388;-68
2024/02/18 05:27:58;0.00;0.00;0.62;0.00;0.00;0.62;2.70;1.73;;;23.60;27.40;;;;;;2260745;61;20477;-69
2024/02/18 05:30:44;0.00;0.00;0.62;0.00;0.00;0.62;2.50;1.63;;;23.60;27.40;;;;;;2260105;61;20377;-69
2024/02/18 05:33:29;0.00;0.00;0.62;0.00;0.00;0.62;2.17;1.70;;;23.60;27.40;;;;;;2260870;61;20396;-68
2024/02/18 05:36:14;0.00;0.00;0.62;0.00;0.00;0.62;2.17;1.40;;;23.60;27.40;;;;;;2260214;61;20356;-68
2024/02/18 05:38:58;0.00;0.00;0.62;0.00;0.00;0.62;2.77;1.77;;;23.60;27.40;;;;;;2260180;61;20447;-68
2024/02/18 05:41:43;0.00;0.00;0.62;0.00;0.00;0.62;3.07;1.80;;;23.50;27.40;;;;;;2257042;61;20365;-68
2024/02/18 05:44:28;0.00;0.00;0.62;0.00;0.00;0.62;3.10;2.17;;;23.50;27.40;;;;;;2260226;61;20360;-69
2024/02/18 05:47:13;0.00;0.00;0.62;0.00;0.00;0.62;3.23;1.80;;;23.50;27.40;;;;;;2260399;61;20392;-68
2024/02/18 05:49:58;0.00;0.00;0.62;0.00;0.00;0.62;2.93;2.00;;;23.60;27.40;;;;;;2260097;61;20400;-68
2024/02/18 05:52:43;0.00;0.00;0.62;0.00;0.00;0.62;2.73;1.90;;;23.50;27.40;;;;;;2259980;61;20983;-69
2024/02/18 05:55:28;0.00;0.00;0.62;0.00;0.00;0.62;2.40;1.80;;;23.50;27.40;;;;;;2260337;61;20368;-68
2024/02/18 05:58:12;0.00;0.00;0.62;0.00;0.00;0.62;2.53;1.63;;;23.50;27.40;;;;;;2260235;61;20422;-68
2024/02/18 06:00:57;0.00;0.00;0.62;0.00;0.00;0.62;2.20;1.77;;;23.50;27.40;;;;;;2259982;61;20365;-67
2024/02/18 06:03:43;0.00;0.00;0.62;0.00;0.00;0.62;2.50;2.13;;;23.50;27.40;;;;;;2260137;61;20511;-68
2024/02/18 06:06:29;0.00;0.00;0.62;0.00;0.00;0.62;2.67;1.77;;;23.50;27.40;;;;;;2259903;61;20500;-69
2024/02/18 06:09:14;0.00;0.00;0.62;0.00;0.00;0.62;2.33;1.70;;;23.50;27.40;;;;;;2260175;61;20934;-69
2024/02/18 06:12:00;0.00;0.00;0.62;0.00;0.00;0.62;2.60;1.73;;;23.50;27.40;;;;;;2260489;61;20376;-69
2024/02/18 06:14:44;0.00;0.00;0.62;0.00;0.00;0.62;2.80;1.90;;;23.50;27.40;;;;;;2258039;61;20364;-68
2024/02/18 06:17:29;0.00;0.00;0.62;0.00;0.00;0.62;2.50;1.80;;;23.50;27.40;;;;;;2261007;61;20376;-68
2024/02/18 06:20:16;0.00;0.00;0.62;0.00;0.00;0.62;2.30;1.87;;;23.50;27.40;;;;;;2260739;61;20581;-68
2024/02/18 06:23:01;0.00;0.00;0.62;0.00;0.00;0.62;1.93;1.73;;;23.50;27.40;;;;;;2260170;61;20857;-69
2024/02/18 06:25:45;0.00;0.00;0.62;0.00;0.00;0.62;2.53;1.80;;;23.50;27.40;;;;;;2260186;61;20360;-68
2024/02/18 06:28:32;0.00;0.00;0.62;0.00;0.00;0.62;2.33;1.67;;;23.50;27.40;;;;;;2260366;61;20484;-68
2024/02/18 06:31:17;0.00;0.00;0.62;0.00;0.00;0.62;2.70;2.03;;;23.50;27.40;;;;;;2260041;61;20895;-69
2024/02/18 06:34:02;0.00;0.00;0.62;0.00;0.00;0.62;2.20;1.50;;;23.50;27.40;;;;;;2268793;39;20399;-68
2024/02/18 06:36:48;0.00;0.00;0.62;0.00;0.00;0.62;2.67;1.93;;;23.50;27.40;;;;;;2267754;61;20359;-68
2024/02/18 06:39:32;0.00;0.00;0.62;0.00;0.00;0.62;1.90;1.30;;;23.50;27.40;;;;;;2268048;61;20898;-68
2024/02/18 06:42:18;0.00;0.00;0.62;0.00;0.00;0.62;2.43;1.70;;;23.40;27.40;;;;;;2268315;61;20382;-69
2024/02/18 06:45:04;0.00;0.00;0.62;0.00;0.00;0.62;1.90;1.60;;;23.50;27.40;;;;;;2264287;61;20363;-67
2024/02/18 06:47:48;0.00;0.00;0.62;0.00;0.00;0.62;2.60;1.90;;;23.40;27.40;;;;;;2265025;61;20480;-67
2024/02/18 06:50:33;0.00;0.00;0.62;0.00;0.00;0.62;2.53;1.93;;;23.40;27.40;;;;;;2264826;61;20395;-67
2024/02/18 06:53:19;0.00;0.00;0.62;0.00;0.00;0.62;2.23;2.00;;;23.40;27.40;;;;;;2265068;61;20941;-69
2024/02/18 06:56:04;0.00;0.00;0.62;0.00;0.00;0.62;2.00;1.57;;;23.40;27.40;;;;;;2265010;61;20368;-68
2024/02/18 06:58:49;0.00;0.00;0.62;0.00;0.00;0.62;2.10;1.60;;;23.40;27.40;;;;;;2265267;61;20996;-68
2024/02/18 07:01:33;0.00;0.00;0.62;0.00;0.00;0.62;2.67;1.83;;;23.40;27.40;;;;;;2265906;61;20410;-68
2024/02/18 07:04:18;0.00;0.00;0.62;0.00;0.00;0.62;2.03;1.57;;;23.40;27.40;;;;;;2266446;61;20789;-69
2024/02/18 07:07:03;0.00;0.00;0.62;0.00;0.00;0.62;2.60;2.20;;;23.40;27.40;;;;;;2266446;61;20491;-67
2024/02/18 07:09:49;0.00;0.00;0.62;0.00;0.00;0.62;2.43;1.67;;;23.40;27.50;;;;;;2266788;61;20376;-68
2024/02/18 07:12:34;0.00;0.00;0.62;0.00;0.00;0.62;2.10;1.60;;;23.40;27.40;;;;;;2265955;61;20410;-67
2024/02/18 07:15:18;0.00;0.00;0.62;0.00;0.00;0.62;2.00;1.63;;;23.40;27.40;;;;;;2266110;61;20436;-68
2024/02/18 07:18:04;0.00;0.00;0.62;0.00;0.00;0.62;1.90;1.70;;;23.40;27.40;;;;;;2266284;61;20351;-67
2024/02/18 07:20:49;0.00;0.00;0.62;0.00;0.00;0.62;2.47;1.63;;;23.40;27.40;;;;;;2266467;61;20449;-68
2024/02/18 07:23:33;0.00;0.00;0.62;0.00;0.00;0.62;2.17;1.53;;;23.40;27.40;;;;;;2265851;61;20380;-67
2024/02/18 07:26:19;0.00;0.00;0.62;0.00;0.00;0.62;2.10;1.60;;;23.40;27.40;;;;;;2266479;61;20797;-69
2024/02/18 07:29:04;0.00;0.00;0.62;0.00;0.00;0.62;1.87;1.50;;;23.40;27.40;;;;;;2266069;61;20364;-68
2024/02/18 07:31:48;0.00;0.00;0.62;0.00;0.00;0.62;2.03;1.50;;;23.40;27.40;;;;;;2264895;61;20414;-67
2024/02/18 07:34:33;0.00;0.00;0.62;0.00;0.00;0.62;2.47;1.80;;;23.40;27.40;;;;;;2264270;61;20802;-69
2024/02/18 07:37:18;0.00;0.00;0.62;0.00;0.00;0.62;2.87;1.47;;;23.40;27.50;;;;;;2264232;61;20412;-67
2024/02/18 07:40:04;0.00;0.00;0.62;0.00;0.00;0.62;2.10;1.40;;;23.40;27.50;;;;;;2264380;61;20918;-67
2024/02/18 07:42:51;0.00;0.00;0.62;0.00;0.00;0.62;2.80;1.80;;;23.40;27.50;;;;;;2264357;61;20383;-67
2024/02/18 07:45:35;0.00;0.00;0.62;0.00;0.00;0.62;1.90;1.40;;;23.40;27.50;;;;;;2264504;61;20421;-67
2024/02/18 07:48:20;0.00;0.00;0.62;0.00;0.00;0.62;2.33;1.73;;;23.40;27.50;;;;;;2264625;61;20443;-67
2024/02/18 07:51:04;0.00;0.00;0.62;0.00;0.00;0.62;2.10;1.90;;;23.40;27.50;;;;;;2264170;61;20879;-67
2024/02/18 07:53:49;0.00;0.00;0.62;0.00;0.00;0.62;2.00;1.43;;;23.40;27.50;;;;;;2264555;61;20426;-67
2024/02/18 07:56:43;0.00;0.00;0.62;0.00;0.00;0.62;1.83;1.30;;;23.40;27.50;;;;;;2264351;61;20352;-67
2024/02/18 07:59:29;0.00;0.00;0.62;0.00;0.00;0.62;2.20;1.60;;;23.40;27.50;;;;;;2264342;61;20368;-67
2024/02/18 08:02:14;0.00;0.00;0.62;0.00;0.00;0.62;2.43;1.63;;;23.40;27.50;;;;;;2264397;61;20489;-67
2024/02/18 08:04:58;0.00;0.00;0.62;0.00;0.00;0.62;2.13;1.47;;;23.40;27.50;;;;;;2264386;61;20510;-72
2024/02/18 08:07:43;0.00;0.00;0.62;0.00;0.00;0.62;2.13;1.60;;;23.40;27.50;;;;;;2264261;61;20388;-68
2024/02/18 08:10:27;0.00;0.00;0.62;0.00;0.00;0.62;2.70;2.03;;;23.40;27.50;;;;;;2264533;61;20418;-69
2024/02/18 08:13:12;0.00;0.00;0.62;0.00;0.00;0.62;1.90;1.50;;;23.40;27.50;;;;;;2264346;61;20387;-68
2024/02/18 08:15:58;0.00;0.00;0.62;0.00;0.00;0.62;2.10;1.53;;;23.40;27.50;;;;;;2264744;61;20388;-68
2024/02/18 08:18:43;0.00;0.00;0.62;0.00;0.00;0.62;2.83;1.80;;;23.40;27.50;;;;;;2264486;61;20411;-68
2024/02/18 08:21:28;0.00;0.00;0.62;0.00;0.00;0.62;2.30;1.70;;;23.40;27.50;;;;;;2264245;61;20414;-68
2024/02/18 08:24:14;0.00;0.00;0.62;0.00;0.00;0.62;3.60;1.77;;;23.40;27.50;;;;;;2264329;61;20934;-67
2024/02/18 08:27:00;0.00;0.00;0.62;0.00;0.00;0.62;2.10;1.63;;;23.40;27.50;;;;;;2264445;61;20434;-70
2024/02/18 08:29:45;0.00;0.00;0.62;0.00;0.00;0.62;2.17;1.63;;;23.40;27.50;;;;;;2264442;61;20410;-67
2024/02/18 08:32:30;0.00;0.00;0.62;0.00;0.00;0.62;2.80;1.70;;;23.40;27.50;;;;;;2264052;61;20890;-67
2024/02/18 08:35:15;0.00;0.00;0.62;0.00;0.00;0.62;2.00;1.43;;;23.40;27.50;;;;;;2264541;61;20490;-67
2024/02/18 08:38:00;0.00;0.00;0.62;0.00;0.00;0.62;2.27;1.83;;;23.40;27.50;;;;;;2264729;61;20379;-67
2024/02/18 08:40:44;0.00;0.00;0.62;0.00;0.00;0.62;2.50;1.87;;;23.40;27.50;;;;;;2264399;61;20363;-67
2024/02/18 08:43:29;0.00;0.00;0.62;0.00;0.00;0.62;2.10;1.73;;;23.40;27.50;;;;;;2264229;61;20387;-67
2024/02/18 08:46:14;0.00;0.00;0.62;0.00;0.00;0.62;2.13;1.53;;;23.40;27.50;;;;;;2264513;61;20834;-67
2024/02/18 08:49:00;0.00;0.00;0.62;0.00;0.00;0.62;2.10;1.60;;;23.40;27.50;;;;;;2264625;61;20399;-67
2024/02/18 08:51:45;0.00;0.00;0.62;0.00;0.00;0.62;1.87;1.67;;;23.40;27.50;;;;;;2264235;61;20906;-67
2024/02/18 08:54:29;0.00;0.00;0.62;0.00;0.00;0.62;2.33;1.57;;;23.40;27.50;;;;;;2264082;61;20411;-67
2024/02/18 08:57:14;0.00;0.00;0.62;0.00;0.00;0.62;2.40;1.90;;;23.40;27.50;;;;;;2264262;61;20352;-67
2024/02/18 09:00:02;0.00;0.00;0.62;0.00;0.00;0.62;2.77;2.13;;;23.40;27.50;;;;;;2264348;61;20390;-67
2024/02/18 09:02:47;0.00;0.00;0.62;0.00;0.00;0.62;2.77;1.70;;;23.40;27.50;;;;;;2264272;61;20949;-67
2024/02/18 09:05:33;0.00;0.00;0.62;0.00;0.00;0.62;2.47;1.77;;;23.40;27.50;;;;;;2263890;61;20368;-67
2024/02/18 09:08:20;0.00;0.00;0.62;0.00;0.00;0.62;2.50;2.00;;;23.40;27.50;;;;;;2264340;61;20798;-68
2024/02/18 09:11:05;0.00;0.00;0.62;0.00;0.00;0.62;2.50;2.20;;;23.40;27.50;;;;;;2264488;61;20363;-67
2024/02/18 09:13:50;0.00;0.00;0.62;0.00;0.00;0.62;2.37;1.97;;;23.40;27.50;;;;;;2264149;61;20434;-70
2024/02/18 09:16:35;0.00;0.00;0.62;0.00;0.00;0.62;3.00;2.17;;;23.40;27.50;;;;;;2264080;61;20916;-67
2024/02/18 09:19:19;0.00;0.00;0.62;0.00;0.00;0.62;2.30;1.90;;;23.40;27.50;;;;;;2263366;61;20356;-67
2024/02/18 09:22:08;0.00;0.00;0.62;0.00;0.00;0.62;3.63;2.07;;;23.40;27.50;;;;;;2264456;61;20372;-67
2024/02/18 09:24:53;0.00;0.00;0.62;0.00;0.00;0.62;2.60;1.90;;;23.40;27.60;;;;;;2264107;61;20388;-66
2024/02/18 09:27:38;0.00;0.00;0.62;0.00;0.00;0.62;2.70;2.00;;;23.40;27.50;;;;;;2263944;61;20395;-68
2024/02/18 09:30:22;0.00;0.00;0.62;0.00;0.00;0.62;2.80;2.20;;;23.40;27.50;;;;;;2264518;61;20356;-68
2024/02/18 09:33:07;0.00;0.00;0.62;0.00;0.00;0.62;2.60;2.07;;;23.40;27.50;;;;;;2263963;61;20918;-67
2024/02/18 09:35:52;0.00;0.00;0.62;0.00;0.00;0.62;2.87;2.27;;;23.40;27.50;;;;;;2264404;61;20379;-68
2024/02/18 09:38:38;0.00;0.00;0.62;0.00;0.00;0.62;3.80;3.10;;;23.40;27.50;;;;;;2264526;61;20868;-68
2024/02/18 09:41:27;0.00;0.00;0.62;0.00;0.00;0.62;3.00;2.33;;;23.40;27.50;;;;;;2264436;61;20399;-70
2024/02/18 09:44:13;0.00;0.00;0.62;0.00;0.00;0.62;3.47;2.40;;;23.40;27.50;;;;;;2264429;61;20922;-67
2024/02/18 09:46:59;0.00;0.00;0.62;0.00;0.00;0.62;3.40;2.53;;;23.40;27.50;;;;;;2264214;61;20956;-67
2024/02/18 09:49:45;0.00;0.00;0.62;0.00;0.00;0.62;3.87;3.20;;;23.40;27.50;;;;;;2264059;61;20379;-67
2024/02/18 09:52:32;0.00;0.00;0.62;0.00;0.00;0.62;2.80;2.40;;;23.40;27.50;;;;;;2264224;61;20367;-67
2024/02/18 09:55:19;0.00;0.00;0.62;0.00;0.00;0.62;3.70;3.10;;;23.40;27.50;;;;;;2264198;61;20419;-66
2024/02/18 09:58:04;0.00;0.00;0.62;0.00;0.00;0.62;3.43;2.73;;;23.40;27.50;;;;;;2264341;61;20790;-67
2024/02/18 10:00:49;0.00;0.00;0.62;0.00;0.00;0.62;4.03;3.10;;;23.40;27.50;;;;;;2264596;61;20418;-67
2024/02/18 10:03:34;0.00;0.00;0.62;0.00;0.00;0.62;3.30;2.77;;;23.40;27.50;;;;;;2264024;61;20586;-67
2024/02/18 10:06:19;0.00;0.00;0.62;0.00;0.00;0.62;4.20;3.20;;;23.40;27.50;;;;;;2264357;61;20879;-66
2024/02/18 10:09:03;0.00;0.00;0.62;0.00;0.00;0.62;3.47;2.90;;;23.40;27.50;;;;;;2263708;61;20368;-66
2024/02/18 10:11:51;0.00;0.00;0.62;0.00;0.00;0.62;3.70;2.73;;;23.40;27.50;;;;;;2264444;61;20372;-67
2024/02/18 10:14:36;0.00;0.00;0.62;0.00;0.00;0.62;4.20;2.93;;;23.40;27.50;;;;;;2260950;61;20391;-66
2024/02/18 10:17:20;0.00;0.00;0.62;0.00;0.00;0.62;3.60;2.63;;;23.40;27.50;;;;;;2264314;61;20360;-67
2024/02/18 10:20:07;0.00;0.00;0.62;0.00;0.00;0.62;3.93;2.60;;;23.40;27.50;;;;;;2264597;61;20444;-69
2024/02/18 10:22:51;0.00;0.00;0.62;0.00;0.00;0.62;3.57;2.37;;;23.40;27.50;;;;;;2264822;61;20407;-67
2024/02/18 10:25:36;0.00;0.00;0.62;0.00;0.00;0.62;3.63;2.90;;;23.40;27.50;;;;;;2264512;61;20929;-67
2024/02/18 10:28:22;0.00;0.00;0.62;0.00;0.00;0.62;3.30;2.70;;;23.40;27.50;;;;;;2264742;61;20417;-66
2024/02/18 10:31:07;0.00;0.00;0.62;0.00;0.00;0.62;3.40;3.00;;;23.40;27.50;;;;;;2264385;61;20368;-67
2024/02/18 10:33:51;0.00;0.00;0.62;0.00;0.00;0.62;3.50;3.00;;;23.40;27.60;;;;;;2264682;61;20415;-69
2024/02/18 10:36:37;0.00;0.00;0.62;0.00;0.00;0.62;4.30;3.10;;;23.40;28.00;;;;;;2264954;61;20352;-67
2024/02/18 10:39:25;0.00;0.00;0.62;0.00;0.00;0.62;3.73;3.07;;;23.40;27.50;;;;;;2264786;61;20363;-66
2024/02/18 10:42:12;0.00;0.00;0.62;0.00;0.00;0.62;3.00;2.63;;;23.40;27.50;;;;;;2264529;61;20367;-66
2024/02/18 10:45:01;0.00;0.00;0.62;0.00;0.00;0.62;3.80;3.07;;;23.40;27.50;;;;;;2264858;61;20364;-68
2024/02/18 10:47:53;0.00;0.00;0.62;0.00;0.00;0.62;3.87;2.67;;;23.50;27.60;;;;;;2265030;61;20406;-68
2024/02/18 10:50:43;0.00;0.00;0.62;0.00;0.00;0.62;3.27;2.80;;;23.40;27.50;;;;;;2264942;61;20903;-68